Time;durP1;ratioP1;P1;durP2;ratioP2;P2;SDS_P1;SDS_P2;PMS_P1;PMS_P2;Temp;Humidity;BMP_temperature;BMP_pressure;BME280_temperature;BME280_humidity;BME280_pressure;Samples;Min_cycle;Max_cycle;Signal;HPM_P1;HPM_P2
2023/05/06 03:32:49;;;;;;;1999.90;999.90;;;;;;;;;;6199316;23;20564;-72
2023/05/06 03:35:34;;;;;;;1999.90;999.90;;;;;;;;;;6213052;23;20197;-71
2023/05/06 03:38:19;;;;;;;1999.90;999.90;;;;;;;;;;6214170;23;20195;-69
2023/05/06 03:41:04;;;;;;;1999.90;999.90;;;;;;;;;;6214052;23;20268;-73
2023/05/06 03:43:49;;;;;;;1999.90;999.90;;;;;;;;;;6183928;23;20177;-71
2023/05/06 03:46:34;;;;;;;1999.90;999.90;;;;;;;;;;6183046;23;20467;-71
2023/05/06 03:49:20;;;;;;;1999.90;999.90;;;;;;;;;;6184215;23;20251;-69
2023/05/06 03:52:05;;;;;;;1999.90;999.90;;;;;;;;;;6184191;23;20590;-70
2023/05/06 03:54:50;;;;;;;1999.90;999.90;;;;;;;;;;6184257;23;20185;-71
2023/05/06 03:57:35;;;;;;;1999.90;999.90;;;;;;;;;;6183902;23;20196;-72
2023/05/06 04:00:20;;;;;;;1999.90;999.90;;;;;;;;;;6183712;23;20191;-71
2023/05/06 04:03:06;;;;;;;1999.90;999.90;;;;;;;;;;6184106;23;20684;-71
2023/05/06 04:05:52;;;;;;;1999.90;999.90;;;;;;;;;;6184089;23;20265;-73
2023/05/06 04:08:37;;;;;;;1999.90;999.90;;;;;;;;;;6183523;23;20165;-74
2023/05/06 04:11:22;;;;;;;1999.90;999.90;;;;;;;;;;6184082;23;20557;-72
2023/05/06 04:14:07;;;;;;;1999.90;999.90;;;;;;;;;;6184056;23;20173;-71
2023/05/06 04:16:52;;;;;;;1999.90;999.90;;;;;;;;;;6183797;23;20194;-72
2023/05/06 04:19:36;;;;;;;1999.90;999.90;;;;;;;;;;6183553;23;20210;-70
2023/05/06 04:22:23;;;;;;;1999.90;999.90;;;;;;;;;;6183736;23;20269;-73
2023/05/06 04:25:08;;;;;;;1999.90;999.90;;;;;;;;;;6183862;23;20166;-71
2023/05/06 04:27:53;;;;;;;1999.90;999.90;;;;;;;;;;6183921;23;20209;-68
2023/05/06 04:30:38;;;;;;;1999.90;999.90;;;;;;;;;;6183700;23;20166;-70
2023/05/06 04:33:24;;;;;;;1999.90;999.90;;;;;;;;;;6183758;23;20367;-69
2023/05/06 04:36:09;;;;;;;1999.90;999.90;;;;;;;;;;6182919;23;20757;-68
2023/05/06 04:38:56;;;;;;;1999.90;999.90;;;;;;;;;;6183371;23;20276;-71
2023/05/06 04:41:41;;;;;;;1999.90;999.90;;;;;;;;;;6183354;23;20208;-69
2023/05/06 04:44:26;;;;;;;1999.90;999.90;;;;;;;;;;6184042;23;20173;-68
2023/05/06 04:47:11;;;;;;;1999.90;999.90;;;;;;;;;;6183987;23;20166;-69
2023/05/06 04:49:56;;;;;;;1999.90;999.90;;;;;;;;;;6183378;23;20185;-69
2023/05/06 04:52:41;;;;;;;1999.90;999.90;;;;;;;;;;6181599;23;20756;-68
2023/05/06 04:55:28;;;;;;;1999.90;999.90;;;;;;;;;;6184100;23;20841;-69
2023/05/06 04:58:13;;;;;;;1999.90;999.90;;;;;;;;;;6183497;23;20721;-70
2023/05/06 05:00:57;;;;;;;1999.90;999.90;;;;;;;;;;6183617;23;20248;-72
2023/05/06 05:03:42;;;;;;;1999.90;999.90;;;;;;;;;;6185121;23;20514;-71
2023/05/06 05:06:27;;;;;;;1999.90;999.90;;;;;;;;;;6184371;23;20173;-69
2023/05/06 05:09:12;;;;;;;1999.90;999.90;;;;;;;;;;6185212;23;20166;-70
2023/05/06 05:12:00;;;;;;;1999.90;999.90;;;;;;;;;;6185131;23;20719;-70
2023/05/06 05:14:46;;;;;;;1999.90;999.90;;;;;;;;;;6185429;23;20607;-70
2023/05/06 05:17:31;;;;;;;1999.90;999.90;;;;;;;;;;6185384;23;20268;-71
2023/05/06 05:20:16;;;;;;;1999.90;999.90;;;;;;;;;;6185000;23;20166;-71
2023/05/06 05:23:00;;;;;;;1999.90;999.90;;;;;;;;;;6184814;23;20678;-70
2023/05/06 05:25:46;;;;;;;1999.90;999.90;;;;;;;;;;6184325;23;20375;-70
2023/05/06 05:28:32;;;;;;;1999.90;999.90;;;;;;;;;;6184497;23;20230;-71
2023/05/06 05:31:17;;;;;;;1999.90;999.90;;;;;;;;;;6184616;23;20169;-70
2023/05/06 05:34:02;;;;;;;1999.90;999.90;;;;;;;;;;6184723;23;20516;-71
2023/05/06 05:36:47;;;;;;;1999.90;999.90;;;;;;;;;;6184640;23;20706;-71
2023/05/06 05:39:32;;;;;;;1999.90;999.90;;;;;;;;;;6184329;23;20167;-70
2023/05/06 05:42:17;;;;;;;1999.90;999.90;;;;;;;;;;6183481;23;20380;-70
2023/05/06 05:45:04;;;;;;;1999.90;999.90;;;;;;;;;;6184657;23;20241;-71
2023/05/06 05:47:48;;;;;;;1999.90;999.90;;;;;;;;;;6185121;23;20166;-70
2023/05/06 05:50:33;;;;;;;1999.90;999.90;;;;;;;;;;6184176;23;20173;-71
2023/05/06 05:53:18;;;;;;;1999.90;999.90;;;;;;;;;;6184371;23;20241;-69
2023/05/06 05:56:03;;;;;;;1999.90;999.90;;;;;;;;;;6184779;23;20170;-70
2023/05/06 05:58:48;;;;;;;1999.90;999.90;;;;;;;;;;6184390;23;20234;-68
2023/05/06 06:01:34;;;;;;;1999.90;999.90;;;;;;;;;;6184504;23;20249;-71
2023/05/06 06:04:19;;;;;;;1999.90;999.90;;;;;;;;;;6184650;23;20222;-71
2023/05/06 06:07:05;;;;;;;1999.90;999.90;;;;;;;;;;6184586;23;20221;-70
2023/05/06 06:09:49;;;;;;;1999.90;999.90;;;;;;;;;;6184190;23;20167;-70
2023/05/06 06:12:35;;;;;;;1999.90;999.90;;;;;;;;;;6184681;23;20278;-67
2023/05/06 06:15:20;;;;;;;1999.90;999.90;;;;;;;;;;6184958;23;20174;-70
2023/05/06 06:18:07;;;;;;;1999.90;999.90;;;;;;;;;;6183742;23;20875;-72
2023/05/06 06:20:52;;;;;;;1999.90;999.90;;;;;;;;;;6184413;23;20170;-71
2023/05/06 06:23:37;;;;;;;1999.90;999.90;;;;;;;;;;6184611;23;20635;-70
2023/05/06 06:26:22;;;;;;;1999.90;999.90;;;;;;;;;;6183771;23;20680;-71
2023/05/06 06:29:07;;;;;;;1999.90;999.90;;;;;;;;;;6184020;23;20604;-71
2023/05/06 06:31:54;;;;;;;1999.90;999.90;;;;;;;;;;6184170;23;20210;-70
2023/05/06 06:34:41;;;;;;;1999.90;999.90;;;;;;;;;;6183202;23;20257;-70
2023/05/06 06:37:26;;;;;;;1999.90;999.90;;;;;;;;;;6184253;23;20503;-68
2023/05/06 06:40:11;;;;;;;1999.90;999.90;;;;;;;;;;6183353;23;20237;-69
2023/05/06 06:42:56;;;;;;;1999.90;999.90;;;;;;;;;;6183871;23;20249;-70
2023/05/06 06:45:41;;;;;;;1999.90;999.90;;;;;;;;;;6184493;23;20213;-70
2023/05/06 06:48:26;;;;;;;1999.90;999.90;;;;;;;;;;6183477;23;20163;-70
2023/05/06 06:51:12;;;;;;;1999.90;999.90;;;;;;;;;;6182683;23;20218;-71
2023/05/06 06:53:57;;;;;;;1999.90;999.90;;;;;;;;;;6184004;23;20166;-71
2023/05/06 06:56:42;;;;;;;1999.90;999.90;;;;;;;;;;6184097;23;20165;-71
2023/05/06 06:59:27;;;;;;;1999.90;999.90;;;;;;;;;;6183908;23;20573;-71
2023/05/06 07:02:12;;;;;;;1999.90;999.90;;;;;;;;;;6184235;23;20241;-70
2023/05/06 07:04:57;;;;;;;1999.90;999.90;;;;;;;;;;6184227;23;20710;-70
2023/05/06 07:07:44;;;;;;;1999.90;999.90;;;;;;;;;;6184392;23;20264;-71
2023/05/06 07:10:28;;;;;;;1999.90;999.90;;;;;;;;;;6183545;23;20511;-71
2023/05/06 07:13:14;;;;;;;1999.90;999.90;;;;;;;;;;6182433;23;20204;-71
2023/05/06 07:15:59;;;;;;;1999.90;999.90;;;;;;;;;;6184102;23;20216;-71
2023/05/06 07:18:44;;;;;;;1999.90;999.90;;;;;;;;;;6183164;23;20245;-70
2023/05/06 07:21:31;;;;;;;1999.90;999.90;;;;;;;;;;6180417;23;20750;-69
2023/05/06 07:24:17;;;;;;;1999.90;999.90;;;;;;;;;;6183980;23;20686;-70
2023/05/06 07:27:01;;;;;;;1999.90;999.90;;;;;;;;;;6184175;23;20169;-70
2023/05/06 07:29:46;;;;;;;1999.90;999.90;;;;;;;;;;6183739;23;20165;-69
2023/05/06 07:32:31;;;;;;;1999.90;999.90;;;;;;;;;;6183833;23;20214;-69
2023/05/06 07:35:16;;;;;;;1999.90;999.90;;;;;;;;;;6184026;23;20169;-71
2023/05/06 07:38:01;;;;;;;1999.90;999.90;;;;;;;;;;6182629;23;20232;-68
2023/05/06 07:40:48;;;;;;;1999.90;999.90;;;;;;;;;;6182049;23;20171;-70
2023/05/06 07:43:33;;;;;;;1999.90;999.90;;;;;;;;;;6182178;23;20609;-69
2023/05/06 07:46:17;;;;;;;1999.90;999.90;;;;;;;;;;6182261;23;20246;-68
2023/05/06 07:49:02;;;;;;;1999.90;999.90;;;;;;;;;;6181431;23;20696;-69
2023/05/06 07:51:47;;;;;;;1999.90;999.90;;;;;;;;;;6181513;23;20205;-69
2023/05/06 07:54:32;;;;;;;1999.90;999.90;;;;;;;;;;6181120;23;20868;-70
2023/05/06 07:57:18;;;;;;;1999.90;999.90;;;;;;;;;;6181626;23;20723;-68
2023/05/06 08:00:03;;;;;;;1999.90;999.90;;;;;;;;;;6181570;23;20166;-70
2023/05/06 08:02:48;;;;;;;1999.90;999.90;;;;;;;;;;6181681;23;20217;-68
2023/05/06 08:05:33;;;;;;;1999.90;999.90;;;;;;;;;;6183864;23;20218;-69
2023/05/06 08:08:18;;;;;;;1999.90;999.90;;;;;;;;;;6183765;23;20213;-70
2023/05/06 08:11:03;;;;;;;1999.90;999.90;;;;;;;;;;6182200;23;20377;-69
2023/05/06 08:13:49;;;;;;;1999.90;999.90;;;;;;;;;;6183288;23;20227;-70
2023/05/06 08:16:35;;;;;;;1999.90;999.90;;;;;;;;;;6182926;23;20174;-71
2023/05/06 08:19:20;;;;;;;1999.90;999.90;;;;;;;;;;6182948;23;20193;-70
2023/05/06 08:22:05;;;;;;;1999.90;999.90;;;;;;;;;;6183333;23;20210;-71
2023/05/06 08:24:49;;;;;;;1999.90;999.90;;;;;;;;;;6183387;23;20190;-70
2023/05/06 08:27:34;;;;;;;1999.90;999.90;;;;;;;;;;6183441;23;20175;-71
2023/05/06 08:30:20;;;;;;;1999.90;999.90;;;;;;;;;;6182676;23;20641;-69
2023/05/06 08:33:06;;;;;;;1999.90;999.90;;;;;;;;;;6183148;23;20607;-71
2023/05/06 08:35:50;;;;;;;1999.90;999.90;;;;;;;;;;6183656;23;20183;-72
2023/05/06 08:38:35;;;;;;;1999.90;999.90;;;;;;;;;;6185121;23;20196;-70
2023/05/06 08:41:21;;;;;;;1999.90;999.90;;;;;;;;;;6185539;23;20253;-71
2023/05/06 08:44:07;;;;;;;1999.90;999.90;;;;;;;;;;6185177;23;20384;-71
2023/05/06 08:46:53;;;;;;;1999.90;999.90;;;;;;;;;;6185637;23;20187;-70
2023/05/06 08:49:38;;;;;;;1999.90;999.90;;;;;;;;;;6185215;23;20230;-70
2023/05/06 08:52:23;;;;;;;1999.90;999.90;;;;;;;;;;6185455;23;20207;-70
2023/05/06 08:55:09;;;;;;;1999.90;999.90;;;;;;;;;;6185429;23;20184;-71
2023/05/06 08:57:54;;;;;;;1999.90;999.90;;;;;;;;;;6185436;23;20232;-71
2023/05/06 09:00:40;;;;;;;1999.90;999.90;;;;;;;;;;6184181;23;20415;-71
2023/05/06 09:03:26;;;;;;;1999.90;999.90;;;;;;;;;;6185442;23;20550;-71
2023/05/06 09:06:11;;;;;;;1999.90;999.90;;;;;;;;;;6185398;23;20169;-70
2023/05/06 09:08:56;;;;;;;1999.90;999.90;;;;;;;;;;6185035;23;20233;-71
2023/05/06 09:11:41;;;;;;;1999.90;999.90;;;;;;;;;;6185351;23;20204;-71
2023/05/06 09:14:26;;;;;;;1999.90;999.90;;;;;;;;;;6185235;23;20169;-70
2023/05/06 09:17:22;;;;;;;1999.90;999.90;;;;;;;;;;6185241;23;20170;-71
2023/05/06 09:20:11;;;;;;;1999.90;999.90;;;;;;;;;;6184664;23;20193;-71
2023/05/06 09:22:56;;;;;;;1999.90;999.90;;;;;;;;;;6185217;23;20209;-71
2023/05/06 09:25:41;;;;;;;1999.90;999.90;;;;;;;;;;6185313;23;20281;-70
2023/05/06 09:28:32;;;;;;;1999.90;999.90;;;;;;;;;;6185058;23;20170;-70
2023/05/06 09:31:17;;;;;;;1999.90;999.90;;;;;;;;;;6184994;23;20305;-71
2023/05/06 09:34:02;;;;;;;1999.90;999.90;;;;;;;;;;6184994;23;20169;-70
2023/05/06 09:36:48;;;;;;;1999.90;999.90;;;;;;;;;;6184014;23;20376;-70
2023/05/06 09:39:33;;;;;;;1999.90;999.90;;;;;;;;;;6184723;23;20196;-71
2023/05/06 09:42:18;;;;;;;1999.90;999.90;;;;;;;;;;6184822;23;20849;-69
2023/05/06 09:45:03;;;;;;;1999.90;999.90;;;;;;;;;;6185023;23;20165;-70
2023/05/06 09:47:48;;;;;;;1999.90;999.90;;;;;;;;;;6184826;23;20221;-69
2023/05/06 09:50:33;;;;;;;1999.90;999.90;;;;;;;;;;6184167;23;20162;-70
2023/05/06 09:53:21;;;;;;;1999.90;999.90;;;;;;;;;;6184917;23;20220;-70
2023/05/06 09:56:07;;;;;;;1999.90;999.90;;;;;;;;;;6182886;23;20375;-70
2023/05/06 09:58:54;;;;;;;1999.90;999.90;;;;;;;;;;6183211;23;20375;-69
2023/05/06 10:01:40;;;;;;;1999.90;999.90;;;;;;;;;;6184896;23;20205;-70
2023/05/06 10:04:26;;;;;;;1999.90;999.90;;;;;;;;;;6183899;23;20186;-70
2023/05/06 10:07:12;;;;;;;1999.90;999.90;;;;;;;;;;6184770;23;20182;-70
2023/05/06 10:10:00;;;;;;;1999.90;999.90;;;;;;;;;;6184699;23;20162;-69
2023/05/06 10:12:45;;;;;;;1999.90;999.90;;;;;;;;;;6184774;23;20210;-69
2023/05/06 10:15:32;;;;;;;1999.90;999.90;;;;;;;;;;6184693;23;20165;-69
2023/05/06 10:18:17;;;;;;;1999.90;999.90;;;;;;;;;;6184559;23;20171;-71
2023/05/06 10:21:03;;;;;;;1999.90;999.90;;;;;;;;;;6184805;23;20171;-70
2023/05/06 10:23:54;;;;;;;1999.90;999.90;;;;;;;;;;6184581;23;20500;-69
2023/05/06 10:26:41;;;;;;;1999.90;999.90;;;;;;;;;;6182862;23;20440;-69
2023/05/06 10:29:26;;;;;;;1999.90;999.90;;;;;;;;;;6183873;23;20246;-70
2023/05/06 10:32:12;;;;;;;1999.90;999.90;;;;;;;;;;6184287;23;20213;-69
2023/05/06 10:34:59;;;;;;;1999.90;999.90;;;;;;;;;;6184394;23;20551;-69
2023/05/06 10:37:45;;;;;;;1999.90;999.90;;;;;;;;;;6184435;23;20508;-70
2023/05/06 10:40:31;;;;;;;1999.90;999.90;;;;;;;;;;6183870;23;20199;-70
2023/05/06 10:43:22;;;;;;;1999.90;999.90;;;;;;;;;;6184006;23;20282;-70
2023/05/06 10:46:08;;;;;;;1999.90;999.90;;;;;;;;;;6184166;23;20170;-70
2023/05/06 10:49:12;;;;;;;1999.90;999.90;;;;;;;;;;6183727;23;20619;-71
2023/05/06 10:52:18;;;;;;;1999.90;999.90;;;;;;;;;;6184514;23;20204;-70
2023/05/06 10:55:24;;;;;;;1999.90;999.90;;;;;;;;;;6184234;23;20170;-70
2023/05/06 10:58:13;;;;;;;1999.90;999.90;;;;;;;;;;6183564;23;20290;-68
2023/05/06 11:00:59;;;;;;;1999.90;999.90;;;;;;;;;;6184619;23;20250;-69
2023/05/06 11:03:45;;;;;;;1999.90;999.90;;;;;;;;;;6183617;23;20217;-69
2023/05/06 11:06:37;;;;;;;1999.90;999.90;;;;;;;;;;6184139;23;20185;-69
2023/05/06 11:09:23;;;;;;;1999.90;999.90;;;;;;;;;;6184017;23;20222;-69
2023/05/06 11:12:08;;;;;;;1999.90;999.90;;;;;;;;;;6182737;23;20220;-69
2023/05/06 11:14:53;;;;;;;1999.90;999.90;;;;;;;;;;6184198;23;20165;-69
2023/05/06 11:17:39;;;;;;;1999.90;999.90;;;;;;;;;;6184325;23;20502;-70
2023/05/06 11:20:25;;;;;;;1999.90;999.90;;;;;;;;;;6183824;23;20621;-71
2023/05/06 11:23:10;;;;;;;1999.90;999.90;;;;;;;;;;6183563;23;20541;-69
2023/05/06 11:25:58;;;;;;;1999.90;999.90;;;;;;;;;;6184528;23;20186;-70
2023/05/06 11:28:43;;;;;;;1999.90;999.90;;;;;;;;;;6183882;23;20327;-73
2023/05/06 11:31:29;;;;;;;1999.90;999.90;;;;;;;;;;6183003;23;20175;-70
2023/05/06 11:34:24;;;;;;;1999.90;999.90;;;;;;;;;;6183997;23;20792;-69
2023/05/06 11:37:09;;;;;;;1999.90;999.90;;;;;;;;;;6184099;23;20174;-70
2023/05/06 11:39:54;;;;;;;1999.90;999.90;;;;;;;;;;6183546;23;20239;-70
2023/05/06 11:42:40;;;;;;;1999.90;999.90;;;;;;;;;;6183814;23;20682;-69
2023/05/06 11:45:25;;;;;;;1999.90;999.90;;;;;;;;;;6183885;23;20186;-69
2023/05/06 11:48:11;;;;;;;1999.90;999.90;;;;;;;;;;6183738;23;20169;-68
2023/05/06 11:50:57;;;;;;;1999.90;999.90;;;;;;;;;;6183745;23;20167;-68
2023/05/06 11:53:42;;;;;;;1999.90;999.90;;;;;;;;;;6184295;23;20167;-71
2023/05/06 11:56:27;;;;;;;1999.90;999.90;;;;;;;;;;6183754;23;20172;-69
2023/05/06 11:59:12;;;;;;;1999.90;999.90;;;;;;;;;;6182349;23;20321;-69
2023/05/06 12:01:58;;;;;;;1999.90;999.90;;;;;;;;;;6181850;23;20677;-68
2023/05/06 12:04:43;;;;;;;1999.90;999.90;;;;;;;;;;6183309;23;20217;-72
2023/05/06 12:07:30;;;;;;;1999.90;999.90;;;;;;;;;;6183516;23;20234;-71
2023/05/06 12:10:16;;;;;;;1999.90;999.90;;;;;;;;;;6183327;23;20367;-72
2023/05/06 12:13:01;;;;;;;1999.90;999.90;;;;;;;;;;6183785;23;20282;-72
2023/05/06 12:15:46;;;;;;;1999.90;999.90;;;;;;;;;;6184081;23;20172;-72
2023/05/06 12:18:31;;;;;;;1999.90;999.90;;;;;;;;;;6181583;23;20806;-71
2023/05/06 12:21:21;;;;;;;1999.90;999.90;;;;;;;;;;6183614;23;20197;-71
2023/05/06 12:24:07;;;;;;;1999.90;999.90;;;;;;;;;;6183319;23;20176;-72
2023/05/06 12:26:52;;;;;;;1999.90;999.90;;;;;;;;;;6183126;23;20637;-70
2023/05/06 12:29:37;;;;;;;1999.90;999.90;;;;;;;;;;6182830;23;20246;-70
2023/05/06 12:32:22;;;;;;;1999.90;999.90;;;;;;;;;;6183531;23;20262;-70
2023/05/06 12:35:08;;;;;;;1999.90;999.90;;;;;;;;;;6184022;23;20238;-70
2023/05/06 12:37:53;;;;;;;1999.90;999.90;;;;;;;;;;6183744;23;20169;-69
2023/05/06 12:40:40;;;;;;;1999.90;999.90;;;;;;;;;;6183267;23;20238;-70
2023/05/06 12:43:29;;;;;;;1999.90;999.90;;;;;;;;;;6183417;23;20207;-70
2023/05/06 12:46:14;;;;;;;1999.90;999.90;;;;;;;;;;6182757;23;20169;-70
2023/05/06 12:48:59;;;;;;;1999.90;999.90;;;;;;;;;;6183331;23;20257;-73
2023/05/06 12:51:44;;;;;;;1999.90;999.90;;;;;;;;;;6182392;23;20371;-70
2023/05/06 12:54:30;;;;;;;1999.90;999.90;;;;;;;;;;6182794;23;20169;-72
2023/05/06 12:57:16;;;;;;;1999.90;999.90;;;;;;;;;;6183196;23;20254;-72
2023/05/06 13:00:01;;;;;;;1999.90;999.90;;;;;;;;;;6182747;23;20198;-70
2023/05/06 13:02:46;;;;;;;1999.90;999.90;;;;;;;;;;6183487;23;20545;-73
2023/05/06 13:05:31;;;;;;;1999.90;999.90;;;;;;;;;;6183297;23;20679;-70
2023/05/06 13:08:16;;;;;;;1999.90;999.90;;;;;;;;;;6181352;23;20459;-70
2023/05/06 13:11:01;;;;;;;1999.90;999.90;;;;;;;;;;6182665;23;20222;-72
2023/05/06 13:13:47;;;;;;;1999.90;999.90;;;;;;;;;;6183727;23;20173;-69
2023/05/06 13:16:32;;;;;;;1999.90;999.90;;;;;;;;;;6183992;23;20240;-70
2023/05/06 13:19:17;;;;;;;1999.90;999.90;;;;;;;;;;6182485;23;20249;-70
2023/05/06 13:22:02;;;;;;;1999.90;999.90;;;;;;;;;;6182084;23;20205;-70
2023/05/06 13:24:47;;;;;;;1999.90;999.90;;;;;;;;;;6184844;23;20169;-70
2023/05/06 13:27:32;;;;;;;1999.90;999.90;;;;;;;;;;6183321;23;20186;-70
2023/05/06 13:30:18;;;;;;;1999.90;999.90;;;;;;;;;;6184485;23;20163;-70
2023/05/06 13:33:02;;;;;;;1999.90;999.90;;;;;;;;;;6183288;23;20213;-70
2023/05/06 13:35:47;;;;;;;1999.90;999.90;;;;;;;;;;6184407;23;20185;-70
2023/05/06 13:38:32;;;;;;;1999.90;999.90;;;;;;;;;;6184586;23;20548;-69
2023/05/06 13:41:18;;;;;;;1999.90;999.90;;;;;;;;;;6184911;23;20193;-70
2023/05/06 13:44:03;;;;;;;1999.90;999.90;;;;;;;;;;6184987;23;20217;-70
2023/05/06 13:46:50;;;;;;;1999.90;999.90;;;;;;;;;;6185036;23;20627;-70
2023/05/06 13:49:34;;;;;;;1999.90;999.90;;;;;;;;;;6184675;23;20173;-71
2023/05/06 13:52:19;;;;;;;1999.90;999.90;;;;;;;;;;6184031;23;20230;-70
2023/05/06 13:55:05;;;;;;;1999.90;999.90;;;;;;;;;;6181744;23;20372;-71
2023/05/06 13:57:50;;;;;;;1999.90;999.90;;;;;;;;;;6184464;23;20255;-72
2023/05/06 14:00:35;;;;;;;1999.90;999.90;;;;;;;;;;6184534;23;20249;-73
2023/05/06 14:03:22;;;;;;;1999.90;999.90;;;;;;;;;;6184809;23;20208;-72
2023/05/06 14:06:08;;;;;;;1999.90;999.90;;;;;;;;;;6184543;23;20524;-72
2023/05/06 14:08:52;;;;;;;1999.90;999.90;;;;;;;;;;6182592;23;20530;-70
2023/05/06 14:11:37;;;;;;;1999.90;999.90;;;;;;;;;;6183935;23;20218;-70
2023/05/06 14:14:22;;;;;;;1999.90;999.90;;;;;;;;;;6183945;23;20167;-71
2023/05/06 14:17:07;;;;;;;1999.90;999.90;;;;;;;;;;6183209;23;20171;-71
2023/05/06 14:19:53;;;;;;;1999.90;999.90;;;;;;;;;;6183754;23;20190;-70
2023/05/06 14:22:40;;;;;;;1999.90;999.90;;;;;;;;;;6184570;23;20545;-72
2023/05/06 14:25:26;;;;;;;1999.90;999.90;;;;;;;;;;6185094;23;20408;-72
2023/05/06 14:28:11;;;;;;;1999.90;999.90;;;;;;;;;;6184646;23;20166;-70
2023/05/06 14:30:56;;;;;;;1999.90;999.90;;;;;;;;;;6184535;23;20229;-71
2023/05/06 14:33:41;;;;;;;1999.90;999.90;;;;;;;;;;6184616;23;20240;-71
2023/05/06 14:36:27;;;;;;;1999.90;999.90;;;;;;;;;;6184743;23;20609;-70
2023/05/06 14:39:12;;;;;;;1999.90;999.90;;;;;;;;;;6184231;23;20166;-71
2023/05/06 14:41:58;;;;;;;1999.90;999.90;;;;;;;;;;6184166;23;20480;-72
2023/05/06 14:44:44;;;;;;;1999.90;999.90;;;;;;;;;;6184206;23;20205;-70
2023/05/06 14:47:29;;;;;;;1999.90;999.90;;;;;;;;;;6184060;23;20253;-70
2023/05/06 14:50:14;;;;;;;1999.90;999.90;;;;;;;;;;6184582;23;20168;-69
2023/05/06 14:53:00;;;;;;;1999.90;999.90;;;;;;;;;;6184248;23;20251;-72
2023/05/06 14:55:47;;;;;;;1999.90;999.90;;;;;;;;;;6183195;23;20206;-71
2023/05/06 14:58:32;;;;;;;1999.90;999.90;;;;;;;;;;6184167;23;20166;-68
2023/05/06 15:01:17;;;;;;;1999.90;999.90;;;;;;;;;;6183524;23;20249;-70
2023/05/06 15:04:02;;;;;;;1999.90;999.90;;;;;;;;;;6184504;23;20245;-72
2023/05/06 15:06:46;;;;;;;1999.90;999.90;;;;;;;;;;6184152;23;20174;-70
2023/05/06 15:09:32;;;;;;;1999.90;999.90;;;;;;;;;;6183879;23;20254;-70
2023/05/06 15:12:19;;;;;;;1999.90;999.90;;;;;;;;;;6184392;23;20181;-70
2023/05/06 15:15:05;;;;;;;1999.90;999.90;;;;;;;;;;6184411;23;20267;-69
2023/05/06 15:17:51;;;;;;;1999.90;999.90;;;;;;;;;;6184540;23;20190;-70
2023/05/06 15:20:36;;;;;;;1999.90;999.90;;;;;;;;;;6184001;23;20707;-71
2023/05/06 15:23:21;;;;;;;1999.90;999.90;;;;;;;;;;6184044;23;20746;-71
2023/05/06 15:26:07;;;;;;;1999.90;999.90;;;;;;;;;;6183983;23;20170;-70
2023/05/06 15:28:52;;;;;;;1999.90;999.90;;;;;;;;;;6183117;23;20367;-70
2023/05/06 15:31:39;;;;;;;1999.90;999.90;;;;;;;;;;6183834;23;20400;-71
2023/05/06 15:34:24;;;;;;;1999.90;999.90;;;;;;;;;;6183932;23;20241;-71
2023/05/06 15:37:09;;;;;;;1999.90;999.90;;;;;;;;;;6184604;23;20182;-71
2023/05/06 15:39:54;;;;;;;1999.90;999.90;;;;;;;;;;6183288;23;20166;-69
2023/05/06 15:42:41;;;;;;;1999.90;999.90;;;;;;;;;;6183737;23;20240;-68
2023/05/06 15:45:26;;;;;;;1999.90;999.90;;;;;;;;;;6183852;23;20174;-71
2023/05/06 15:48:10;;;;;;;1999.90;999.90;;;;;;;;;;6182079;23;20556;-69
2023/05/06 15:50:55;;;;;;;1999.90;999.90;;;;;;;;;;6184193;23;20662;-70
2023/05/06 15:53:40;;;;;;;1999.90;999.90;;;;;;;;;;6184416;23;20234;-69
2023/05/06 15:56:25;;;;;;;1999.90;999.90;;;;;;;;;;6183335;23;20254;-68
2023/05/06 15:59:12;;;;;;;1999.90;999.90;;;;;;;;;;6180565;23;20167;-69
2023/05/06 16:01:57;;;;;;;1999.90;999.90;;;;;;;;;;6182280;23;20697;-71
2023/05/06 16:04:42;;;;;;;1999.90;999.90;;;;;;;;;;6183694;23;20168;-70
2023/05/06 16:07:28;;;;;;;1999.90;999.90;;;;;;;;;;6182755;23;20173;-71
2023/05/06 16:10:13;;;;;;;1999.90;999.90;;;;;;;;;;6183538;23;20181;-69
2023/05/06 16:12:58;;;;;;;1999.90;999.90;;;;;;;;;;6183789;23;20208;-68
2023/05/06 16:15:44;;;;;;;1999.90;999.90;;;;;;;;;;6183148;23;20360;-70
2023/05/06 16:18:29;;;;;;;1999.90;999.90;;;;;;;;;;6185804;23;20206;-70
2023/05/06 16:21:14;;;;;;;1999.90;999.90;;;;;;;;;;6186821;23;20530;-70
2023/05/06 16:24:01;;;;;;;1999.90;999.90;;;;;;;;;;6184162;23;20214;-68
2023/05/06 16:26:46;;;;;;;1999.90;999.90;;;;;;;;;;6184820;23;20177;-67
2023/05/06 16:29:30;;;;;;;1999.90;999.90;;;;;;;;;;6183687;23;20667;-69
2023/05/06 16:32:17;;;;;;;1999.90;999.90;;;;;;;;;;6184116;23;20214;-68
2023/05/06 16:35:01;;;;;;;1999.90;999.90;;;;;;;;;;6183763;23;20177;-69
2023/05/06 16:37:46;;;;;;;1999.90;999.90;;;;;;;;;;6184102;23;20178;-69
2023/05/06 16:40:32;;;;;;;1999.90;999.90;;;;;;;;;;6183366;23;20276;-69
2023/05/06 16:43:18;;;;;;;1999.90;999.90;;;;;;;;;;6183769;23;20208;-68
2023/05/06 16:46:02;;;;;;;1999.90;999.90;;;;;;;;;;6183389;23;20170;-69
2023/05/06 16:48:49;;;;;;;1999.90;999.90;;;;;;;;;;6183009;23;20225;-69
2023/05/06 16:51:34;;;;;;;1999.90;999.90;;;;;;;;;;6183554;23;20328;-69
2023/05/06 16:54:19;;;;;;;1999.90;999.90;;;;;;;;;;6183793;23;20182;-69
2023/05/06 16:57:03;;;;;;;1999.90;999.90;;;;;;;;;;6183251;23;20172;-72
2023/05/06 16:59:49;;;;;;;1999.90;999.90;;;;;;;;;;6184633;23;20194;-68
2023/05/06 17:02:34;;;;;;;1999.90;999.90;;;;;;;;;;6183131;23;20984;-69
2023/05/06 17:05:20;;;;;;;1999.90;999.90;;;;;;;;;;6185080;23;20169;-69
2023/05/06 17:08:06;;;;;;;1999.90;999.90;;;;;;;;;;6184758;23;20180;-68
2023/05/06 17:10:51;;;;;;;1999.90;999.90;;;;;;;;;;6185141;23;20297;-67
2023/05/06 17:13:36;;;;;;;1999.90;999.90;;;;;;;;;;6185678;23;20266;-68
2023/05/06 17:16:22;;;;;;;1999.90;999.90;;;;;;;;;;6185435;23;20177;-68
2023/05/06 17:19:07;;;;;;;1999.90;999.90;;;;;;;;;;6185516;23;20168;-69
2023/05/06 17:21:54;;;;;;;1999.90;999.90;;;;;;;;;;6185216;23;20211;-70
2023/05/06 17:24:39;;;;;;;1999.90;999.90;;;;;;;;;;6185065;23;20171;-71
2023/05/06 17:27:24;;;;;;;1999.90;999.90;;;;;;;;;;6183813;23;20620;-70
2023/05/06 17:30:10;;;;;;;1999.90;999.90;;;;;;;;;;6183057;23;20171;-71
2023/05/06 17:32:55;;;;;;;1999.90;999.90;;;;;;;;;;6184873;23;20554;-72
2023/05/06 17:35:40;;;;;;;1999.90;999.90;;;;;;;;;;6185149;23;20166;-71
2023/05/06 17:38:26;;;;;;;1999.90;999.90;;;;;;;;;;6183499;23;20397;-70
2023/05/06 17:41:11;;;;;;;1999.90;999.90;;;;;;;;;;6185064;23;20194;-71
2023/05/06 17:43:56;;;;;;;1999.90;999.90;;;;;;;;;;6185108;23;20171;-72
2023/05/06 17:46:41;;;;;;;1999.90;999.90;;;;;;;;;;6185268;23;20205;-74
2023/05/06 17:49:25;;;;;;;1999.90;999.90;;;;;;;;;;6184933;23;20233;-69
2023/05/06 17:52:10;;;;;;;1999.90;999.90;;;;;;;;;;6185041;23;20286;-72
2023/05/06 17:54:57;;;;;;;1999.90;999.90;;;;;;;;;;6183332;23;20416;-73
2023/05/06 17:57:42;;;;;;;1999.90;999.90;;;;;;;;;;6185014;23;20242;-73
2023/05/06 18:00:27;;;;;;;1999.90;999.90;;;;;;;;;;6184850;23;20512;-73
2023/05/06 18:03:12;;;;;;;1999.90;999.90;;;;;;;;;;6184929;23;20201;-74
2023/05/06 18:05:57;;;;;;;1999.90;999.90;;;;;;;;;;6184977;23;20510;-73
2023/05/06 18:08:43;;;;;;;1999.90;999.90;;;;;;;;;;6184407;23;20168;-73
2023/05/06 18:11:29;;;;;;;1999.90;999.90;;;;;;;;;;6184891;23;20653;-73
2023/05/06 18:14:15;;;;;;;1999.90;999.90;;;;;;;;;;6185014;23;20655;-73
2023/05/06 18:17:00;;;;;;;1999.90;999.90;;;;;;;;;;6184708;23;20214;-73
2023/05/06 18:19:45;;;;;;;1999.90;999.90;;;;;;;;;;6184702;23;20261;-73
2023/05/06 18:22:30;;;;;;;1999.90;999.90;;;;;;;;;;6184880;23;20210;-73
2023/05/06 18:25:15;;;;;;;1999.90;999.90;;;;;;;;;;6184793;23;20218;-72
2023/05/06 18:28:03;;;;;;;1999.90;999.90;;;;;;;;;;6184803;23;20166;-73
2023/05/06 18:30:48;;;;;;;1999.90;999.90;;;;;;;;;;6184717;23;20608;-73
2023/05/06 18:33:34;;;;;;;1999.90;999.90;;;;;;;;;;6185126;23;20206;-73
2023/05/06 18:36:19;;;;;;;1999.90;999.90;;;;;;;;;;6184875;23;20242;-72
2023/05/06 18:39:04;;;;;;;1999.90;999.90;;;;;;;;;;6184517;23;20170;-73
2023/05/06 18:41:49;;;;;;;1999.90;999.90;;;;;;;;;;6184698;23;20211;-72
2023/05/06 18:44:35;;;;;;;1999.90;999.90;;;;;;;;;;6184181;23;20457;-73
2023/05/06 18:47:20;;;;;;;1999.90;999.90;;;;;;;;;;6184647;23;20174;-74
2023/05/06 18:50:06;;;;;;;1999.90;999.90;;;;;;;;;;6184846;23;20248;-72
2023/05/06 18:52:51;;;;;;;1999.90;999.90;;;;;;;;;;6184661;23;20675;-73
2023/05/06 18:55:36;;;;;;;1999.90;999.90;;;;;;;;;;6184511;23;20187;-73